Time;durP1;ratioP1;P1;durP2;ratioP2;P2;SDS_P1;SDS_P2;PMS_P1;PMS_P2;Temp;Humidity;BMP_temperature;BMP_pressure;BME280_temperature;BME280_humidity;BME280_pressure;Samples;Min_cycle;Max_cycle;Signal;HPM_P1;HPM_P2
2023/10/26 04:00:51;;;;;;;0.70;0.57;;;12.10;99.90;;;;;;5700212;23;20500;-71
2023/10/26 04:03:19;;;;;;;0.50;0.20;;;;;;;;;;4915704;29;20616;-70
2023/10/26 04:05:47;;;;;;;0.60;0.43;;;12.00;99.90;;;;;;4915586;29;20453;-72
2023/10/26 04:08:15;;;;;;;1.07;0.60;;;11.90;99.90;;;;;;4915685;29;20524;-72
2023/10/26 04:10:43;;;;;;;4.90;1.27;;;11.90;99.90;;;;;;4911725;29;20474;-70
2023/10/26 04:13:11;;;;;;;0.50;0.23;;;11.90;99.90;;;;;;4889111;29;20506;-71
2023/10/26 04:15:39;;;;;;;0.50;0.10;;;11.80;99.90;;;;;;4897238;29;20500;-72
2023/10/26 04:18:08;;;;;;;0.60;0.30;;;11.80;99.90;;;;;;4897222;29;20457;-72
2023/10/26 04:20:36;;;;;;;0.50;0.10;;;11.80;99.90;;;;;;4896738;29;20499;-71
2023/10/26 04:23:04;;;;;;;0.50;0.10;;;11.90;99.90;;;;;;4896716;29;20527;-70
2023/10/26 04:25:32;;;;;;;0.50;0.10;;;11.90;99.90;;;;;;4896981;29;20809;-71
2023/10/26 04:28:20;;;;;;;0.50;0.10;;;12.00;99.90;;;;;;4896845;29;20461;-72
2023/10/26 04:30:48;;;;;;;0.70;0.50;;;11.80;99.90;;;;;;4893629;29;20523;-72
2023/10/26 04:33:18;;;;;;;0.70;0.50;;;11.70;99.90;;;;;;4888947;29;20455;-71
2023/10/26 04:35:47;;;;;;;0.60;0.20;;;11.60;99.90;;;;;;4884411;29;20503;-72
2023/10/26 04:38:15;;;;;;;0.60;0.20;;;11.60;99.90;;;;;;4887916;29;20969;-73
2023/10/26 04:40:44;;;;;;;0.50;0.10;;;11.60;99.90;;;;;;4890614;29;20478;-73
2023/10/26 04:43:12;;;;;;;1.57;1.10;;;11.60;99.90;;;;;;4894517;29;20793;-71
2023/10/26 04:45:40;;;;;;;0.87;0.60;;;11.60;99.90;;;;;;4891106;29;20446;-72
2023/10/26 04:48:08;;;;;;;0.50;0.10;;;11.70;99.90;;;;;;4894551;29;20454;-72
2023/10/26 04:50:37;;;;;;;0.50;0.10;;;11.70;99.90;;;;;;4896716;29;20475;-72
2023/10/26 04:53:05;;;;;;;0.63;0.60;;;11.70;99.90;;;;;;4883790;29;20563;-71
2023/10/26 04:55:34;;;;;;;2.00;1.90;;;11.70;99.90;;;;;;4887867;29;20454;-71
2023/10/26 04:58:02;;;;;;;1.90;1.40;;;11.80;99.90;;;;;;4882350;29;20494;-71
2023/10/26 05:00:31;;;;;;;0.50;0.30;;;11.70;99.90;;;;;;4888053;29;20847;-71
2023/10/26 05:02:59;;;;;;;0.50;0.10;;;11.80;99.90;;;;;;4896586;29;20529;-71
2023/10/26 05:05:27;;;;;;;1.63;0.60;;;11.70;99.90;;;;;;4892275;29;20518;-71
2023/10/26 05:07:57;;;;;;;0.50;0.10;;;11.50;99.90;;;;;;4892313;29;20890;-71
2023/10/26 05:10:24;;;;;;;0.50;0.20;;;11.60;99.90;;;;;;4898527;29;21007;-70
2023/10/26 05:12:52;;;;;;;0.60;0.23;;;11.60;99.90;;;;;;4899015;29;20473;-69
2023/10/26 05:15:20;;;;;;;0.50;0.10;;;11.70;99.90;;;;;;4898954;29;20445;-71
2023/10/26 05:17:48;;;;;;;0.93;0.40;;;11.60;99.90;;;;;;4895341;29;20473;-69
2023/10/26 05:20:16;;;;;;;0.60;0.30;;;11.70;99.90;;;;;;4891982;29;20506;-70
2023/10/26 05:22:44;;;;;;;0.60;0.47;;;11.70;99.90;;;;;;4896396;29;21008;-70
2023/10/26 05:25:13;;;;;;;0.60;0.30;;;11.70;99.90;;;;;;4888512;29;20599;-71
2023/10/26 05:27:41;;;;;;;0.50;0.10;;;11.70;99.90;;;;;;4899492;29;20459;-72
2023/10/26 05:30:09;;;;;;;0.50;0.20;;;11.80;99.90;;;;;;4893409;29;20457;-71
2023/10/26 05:32:38;;;;;;;0.70;0.37;;;11.70;99.90;;;;;;4888559;29;20461;-71
2023/10/26 05:35:07;;;;;;;0.50;0.10;;;11.70;99.90;;;;;;4891969;29;20469;-69
2023/10/26 05:37:35;;;;;;;2.20;0.87;;;11.60;99.90;;;;;;4891456;29;20454;-69
2023/10/26 05:40:04;;;;;;;0.60;0.30;;;11.50;99.90;;;;;;4899077;29;20524;-71
2023/10/26 05:42:35;;;;;;;0.50;0.20;;;11.50;99.90;;;;;;4899569;29;20481;-71
2023/10/26 05:45:03;;;;;;;0.83;0.57;;;11.40;99.90;;;;;;4906352;29;20906;-72
2023/10/26 05:47:31;;;;;;;0.50;0.10;;;11.50;99.90;;;;;;4893398;29;20453;-72
2023/10/26 05:49:59;;;;;;;0.50;0.10;;;11.50;99.90;;;;;;4899992;29;20480;-72
2023/10/26 05:52:27;;;;;;;0.50;0.10;;;11.50;99.90;;;;;;4883753;29;20991;-71
2023/10/26 05:54:54;;;;;;;0.93;0.70;;;11.60;99.90;;;;;;4899248;29;20555;-72
2023/10/26 05:57:22;;;;;;;0.50;0.10;;;11.40;99.90;;;;;;4899626;29;20478;-72
2023/10/26 05:59:52;;;;;;;0.50;0.10;;;11.40;99.90;;;;;;4891418;29;20504;-73
2023/10/26 06:02:20;;;;;;;0.53;0.20;;;11.50;99.90;;;;;;4897611;29;20570;-72
2023/10/26 06:04:49;;;;;;;0.70;0.57;;;11.60;99.90;;;;;;4896409;29;20543;-73
2023/10/26 06:07:17;;;;;;;2.60;2.27;;;11.60;99.90;;;;;;4891919;29;20451;-72
2023/10/26 06:09:45;;;;;;;0.50;0.30;;;;;;;;;;4901422;29;20464;-73
2023/10/26 06:12:13;;;;;;;0.50;0.20;;;11.70;99.90;;;;;;4891763;29;20571;-73
2023/10/26 06:14:41;;;;;;;0.70;0.60;;;11.80;99.90;;;;;;4899763;29;20449;-73
2023/10/26 06:17:11;;;;;;;0.60;0.20;;;11.70;99.90;;;;;;4898557;29;20480;-73
2023/10/26 06:19:39;;;;;;;1.70;0.50;;;11.60;99.90;;;;;;4899588;29;20533;-72
2023/10/26 06:22:07;;;;;;;0.67;0.40;;;11.50;99.90;;;;;;4899029;29;21024;-72
2023/10/26 06:24:52;;;;;;;0.70;0.40;;;11.50;99.90;;;;;;4900188;29;20548;-71
2023/10/26 06:27:26;;;;;;;0.70;0.33;;;11.40;99.90;;;;;;4899718;29;20498;-72
2023/10/26 06:29:54;;;;;;;1.33;0.90;;;11.30;99.90;;;;;;4892354;29;20557;-72
2023/10/26 06:32:23;;;;;;;0.60;0.20;;;11.20;99.90;;;;;;4887522;29;20529;-72
2023/10/26 06:34:52;;;;;;;0.50;0.10;;;11.30;99.90;;;;;;4885735;29;20482;-71
2023/10/26 06:37:19;;;;;;;1.27;0.93;;;11.30;99.90;;;;;;4886165;29;20533;-73
2023/10/26 06:40:03;;;;;;;1.43;0.60;;;;;;;;;;4885905;29;20453;-72
2023/10/26 06:42:46;;;;;;;0.60;0.20;;;;;;;;;;4879117;29;20505;-72
2023/10/26 06:45:16;;;;;;;0.50;0.10;;;;;;;;;;4881747;29;20541;-73
2023/10/26 06:47:46;;;;;;;0.50;0.20;;;;;;;;;;4891243;29;20510;-71
2023/10/26 06:50:14;;;;;;;0.60;0.50;;;11.60;99.90;;;;;;4883258;29;20462;-72
2023/10/26 06:52:42;;;;;;;0.50;0.10;;;11.60;99.90;;;;;;4891204;29;20492;-71
2023/10/26 06:55:14;;;;;;;1.43;1.03;;;11.70;99.90;;;;;;4890022;29;21044;-71
2023/10/26 06:57:57;;;;;;;0.50;0.10;;;11.80;99.90;;;;;;4882703;29;20518;-71
2023/10/26 07:00:26;;;;;;;0.50;0.20;;;;;;;;;;4888793;29;20453;-70
2023/10/26 07:02:55;;;;;;;0.70;0.40;;;11.70;99.90;;;;;;4897536;29;20449;-71
2023/10/26 07:05:23;;;;;;;0.50;0.10;;;11.70;99.90;;;;;;4893800;29;20495;-70
2023/10/26 07:07:51;;;;;;;1.60;0.87;;;11.70;99.90;;;;;;4888819;29;20544;-71
2023/10/26 07:10:19;;;;;;;0.80;0.73;;;11.70;99.90;;;;;;4885295;29;20476;-71
2023/10/26 07:12:48;;;;;;;0.60;0.40;;;11.60;99.90;;;;;;4889375;29;20874;-72
2023/10/26 07:15:16;;;;;;;2.40;1.53;;;11.60;99.90;;;;;;4897503;29;20462;-72
2023/10/26 07:17:44;;;;;;;1.20;0.90;;;11.60;99.90;;;;;;4892443;29;20493;-73
2023/10/26 07:20:14;;;;;;;0.60;0.30;;;11.50;99.90;;;;;;4897879;29;20814;-73
2023/10/26 07:22:42;;;;;;;0.60;0.30;;;11.50;99.90;;;;;;4898496;29;20469;-72
2023/10/26 07:25:10;;;;;;;1.67;1.23;;;11.60;99.90;;;;;;4897867;29;20494;-72
2023/10/26 07:27:38;;;;;;;0.50;0.10;;;11.70;99.90;;;;;;4888319;29;20477;-71
2023/10/26 07:30:08;;;;;;;0.60;0.30;;;11.80;99.90;;;;;;4893040;29;20825;-71
2023/10/26 07:32:35;;;;;;;0.50;0.10;;;11.90;99.90;;;;;;4878740;29;21071;-72
2023/10/26 07:35:04;;;;;;;0.50;0.10;;;12.00;99.90;;;;;;4879804;29;20507;-72
2023/10/26 07:37:33;;;;;;;2.40;1.23;;;11.80;99.90;;;;;;4881445;29;20462;-72
2023/10/26 07:40:01;;;;;;;0.50;0.10;;;11.80;99.90;;;;;;4878743;29;20538;-71
2023/10/26 07:42:49;;;;;;;7.30;4.10;;;11.90;99.90;;;;;;4878837;29;20451;-73
2023/10/26 07:45:17;;;;;;;0.50;0.10;;;11.80;99.90;;;;;;4878867;29;20498;-72
2023/10/26 07:47:45;;;;;;;0.60;0.43;;;11.90;99.90;;;;;;4878700;29;20456;-72
2023/10/26 07:50:16;;;;;;;0.60;0.40;;;12.00;99.90;;;;;;4882537;29;20493;-72
2023/10/26 07:52:46;;;;;;;0.53;0.10;;;12.10;99.90;;;;;;4891452;29;20537;-71
2023/10/26 07:55:14;;;;;;;0.50;0.10;;;12.20;99.90;;;;;;4888320;29;20456;-71
2023/10/26 07:57:42;;;;;;;0.50;0.10;;;12.30;99.90;;;;;;4888603;29;20458;-73
2023/10/26 08:00:12;;;;;;;0.50;0.20;;;12.30;99.90;;;;;;4882656;29;20490;-73
2023/10/26 08:02:40;;;;;;;0.60;0.20;;;12.40;99.90;;;;;;4880592;29;20481;-72
2023/10/26 08:05:09;;;;;;;0.50;0.20;;;12.30;99.90;;;;;;4886514;29;20810;-73
2023/10/26 08:07:37;;;;;;;0.80;0.60;;;12.30;99.90;;;;;;4879017;29;20456;-72
2023/10/26 08:10:09;;;;;;;0.97;0.90;;;12.20;99.90;;;;;;4885300;29;20474;-71
2023/10/26 08:12:37;;;;;;;0.50;0.10;;;12.30;99.90;;;;;;4891501;29;20457;-73
2023/10/26 08:15:06;;;;;;;0.50;0.10;;;12.30;99.90;;;;;;4892319;29;20460;-73
2023/10/26 08:17:53;;;;;;;0.53;0.20;;;12.30;99.90;;;;;;4884155;29;20448;-74
2023/10/26 08:20:22;;;;;;;1.87;0.70;;;12.40;99.90;;;;;;4881979;29;20463;-72
2023/10/26 08:22:50;;;;;;;0.60;0.37;;;;;;;;;;4891937;29;20723;-74
2023/10/26 08:25:20;;;;;;;0.50;0.20;;;12.40;99.90;;;;;;4884615;29;20953;-73
2023/10/26 08:27:52;;;;;;;0.50;0.10;;;12.30;99.90;;;;;;4881890;29;20466;-73
2023/10/26 08:30:20;;;;;;;0.77;0.23;;;12.30;99.90;;;;;;4881367;29;20820;-73
2023/10/26 08:32:49;;;;;;;0.50;0.10;;;12.30;99.90;;;;;;4885942;29;20524;-72
2023/10/26 08:35:18;;;;;;;0.50;0.10;;;12.40;99.90;;;;;;4884119;29;20462;-73
2023/10/26 08:37:46;;;;;;;0.87;0.87;;;12.30;99.90;;;;;;4885309;29;20821;-74
2023/10/26 08:40:14;;;;;;;0.50;0.10;;;12.40;99.90;;;;;;4890231;29;20454;-72
2023/10/26 08:42:43;;;;;;;0.50;0.10;;;12.40;99.90;;;;;;4886538;29;20486;-71
2023/10/26 08:45:13;;;;;;;0.60;0.40;;;12.50;99.90;;;;;;4881330;29;20865;-72
2023/10/26 08:47:42;;;;;;;0.50;0.10;;;12.50;99.90;;;;;;4877195;29;20497;-72
2023/10/26 08:50:13;;;;;;;0.60;0.10;;;12.60;99.90;;;;;;4876995;29;20458;-71
2023/10/26 08:52:43;;;;;;;0.60;0.30;;;12.60;99.90;;;;;;4887102;29;20476;-72
2023/10/26 08:55:11;;;;;;;0.50;0.10;;;12.60;99.90;;;;;;4892374;29;20832;-72
2023/10/26 08:57:50;;;;;;;1.17;0.47;;;12.70;99.90;;;;;;4876759;29;20531;-72
2023/10/26 09:00:19;;;;;;;0.60;0.40;;;12.80;99.90;;;;;;4887946;29;20508;-72
2023/10/26 09:02:49;;;;;;;0.60;0.10;;;12.80;99.90;;;;;;4881974;29;20826;-72
2023/10/26 09:05:17;;;;;;;1.43;1.33;;;12.80;99.90;;;;;;4885336;29;20481;-73
2023/10/26 09:07:46;;;;;;;0.70;0.40;;;12.70;99.90;;;;;;4881138;29;20492;-72
2023/10/26 09:10:17;;;;;;;0.60;0.30;;;12.80;99.90;;;;;;4887376;29;20472;-73
2023/10/26 09:12:59;;;;;;;0.60;0.20;;;12.90;99.90;;;;;;4900230;29;21013;-72
2023/10/26 09:15:27;;;;;;;0.90;0.60;;;12.90;99.90;;;;;;4891882;29;20894;-71
2023/10/26 09:17:56;;;;;;;0.53;0.10;;;13.00;99.90;;;;;;4899958;29;20461;-73
2023/10/26 09:20:26;;;;;;;0.60;0.20;;;12.90;99.90;;;;;;4890865;29;20539;-71
2023/10/26 09:22:54;;;;;;;0.60;0.23;;;13.00;99.90;;;;;;4898523;29;20585;-71
2023/10/26 09:25:22;;;;;;;11.43;1.70;;;12.90;99.90;;;;;;4890310;29;20545;-71
2023/10/26 09:28:03;;;;;;;0.80;0.43;;;12.80;99.90;;;;;;4895010;29;20951;-71
2023/10/26 09:30:32;;;;;;;3.53;0.50;;;12.80;99.90;;;;;;4898059;29;20451;-71
2023/10/26 09:33:03;;;;;;;0.87;0.70;;;12.80;99.90;;;;;;4889040;29;21084;-72
2023/10/26 09:35:33;;;;;;;1.47;0.40;;;12.70;99.90;;;;;;4896859;29;20503;-71
2023/10/26 09:38:01;;;;;;;0.50;0.10;;;12.70;99.90;;;;;;4893935;29;20470;-71
2023/10/26 09:40:29;;;;;;;0.60;0.10;;;12.70;99.90;;;;;;4896372;29;20538;-71
2023/10/26 09:42:57;;;;;;;0.83;0.77;;;12.80;99.90;;;;;;4900092;29;20460;-71
2023/10/26 09:45:27;;;;;;;0.60;0.20;;;12.90;99.90;;;;;;4890909;29;20464;-72
2023/10/26 09:47:55;;;;;;;0.83;0.70;;;12.90;99.90;;;;;;4894672;29;20485;-73
2023/10/26 09:50:25;;;;;;;0.60;0.20;;;13.00;99.90;;;;;;4900216;29;20476;-71
2023/10/26 09:52:54;;;;;;;1.10;0.70;;;13.00;99.90;;;;;;4897998;29;20538;-72
2023/10/26 09:55:22;;;;;;;0.80;0.40;;;13.10;99.90;;;;;;4890642;29;20971;-73
2023/10/26 09:57:56;;;;;;;1.10;0.57;;;13.20;99.90;;;;;;4899148;29;21008;-71
2023/10/26 10:00:31;;;;;;;0.60;0.10;;;13.10;99.90;;;;;;4898928;29;21190;-70
2023/10/26 10:03:15;;;;;;;0.60;0.20;;;13.20;99.90;;;;;;4900442;29;20447;-72
2023/10/26 10:05:44;;;;;;;0.60;0.10;;;13.30;99.90;;;;;;4891631;29;20464;-72
2023/10/26 10:08:12;;;;;;;4.63;1.17;;;;;;;;;;4900810;29;20988;-73
2023/10/26 10:11:14;;;;;;;0.80;0.33;;;13.40;99.90;;;;;;4891500;29;20514;-73
2023/10/26 10:13:42;;;;;;;0.60;0.40;;;13.50;99.90;;;;;;4894849;29;20515;-72
2023/10/26 10:16:45;;;;;;;0.77;0.63;;;13.40;99.90;;;;;;4902193;29;20547;-72
2023/10/26 10:19:18;;;;;;;0.60;0.10;;;;;;;;;;4905474;29;20453;-72
2023/10/26 10:21:48;;;;;;;2.60;1.27;;;13.40;99.90;;;;;;4889803;29;20519;-73
2023/10/26 10:24:49;;;;;;;0.80;0.40;;;13.30;99.90;;;;;;4890485;29;20470;-72
2023/10/26 10:27:18;;;;;;;0.60;0.10;;;13.30;99.90;;;;;;4902368;29;20489;-73
2023/10/26 10:29:46;;;;;;;0.60;0.10;;;13.30;99.90;;;;;;4892784;29;20462;-74
2023/10/26 10:32:50;;;;;;;3.53;0.40;;;13.40;99.90;;;;;;4899688;29;20529;-72
2023/10/26 10:35:43;;;;;;;0.73;0.40;;;13.40;99.90;;;;;;4899259;29;20471;-71
2023/10/26 10:38:22;;;;;;;0.70;0.30;;;13.20;99.90;;;;;;4901469;29;20441;-71
2023/10/26 10:41:18;;;;;;;0.60;0.10;;;13.20;99.90;;;;;;4888884;29;20475;-71
2023/10/26 10:43:47;;;;;;;0.60;0.10;;;13.20;99.90;;;;;;4910436;29;20469;-72
2023/10/26 10:46:18;;;;;;;0.70;0.20;;;;;;;;;;4914605;29;20463;-73
2023/10/26 10:49:04;;;;;;;0.60;0.10;;;13.20;99.90;;;;;;4913401;29;20523;-72
2023/10/26 10:51:35;;;;;;;0.60;0.10;;;13.30;99.90;;;;;;4902515;29;20485;-72
2023/10/26 10:54:05;;;;;;;0.60;0.10;;;13.30;99.90;;;;;;4893291;29;20460;-72
2023/10/26 10:56:53;;;;;;;0.60;0.10;;;13.40;99.90;;;;;;4897291;29;20941;-73
2023/10/26 10:59:23;;;;;;;0.60;0.10;;;13.50;99.90;;;;;;4901781;29;20446;-73
2023/10/26 11:02:06;;;;;;;0.60;0.10;;;13.50;99.90;;;;;;4901759;29;20536;-72
2023/10/26 11:04:35;;;;;;;0.60;0.10;;;13.50;99.90;;;;;;4892145;29;20543;-74
2023/10/26 11:07:25;;;;;;;0.60;0.10;;;13.60;99.90;;;;;;4891213;29;20499;-73
2023/10/26 11:09:56;;;;;;;0.60;0.10;;;13.60;99.90;;;;;;4886080;29;20538;-72
2023/10/26 11:12:24;;;;;;;0.60;0.10;;;13.40;99.90;;;;;;4900248;29;20887;-72
2023/10/26 11:14:54;;;;;;;0.60;0.30;;;13.50;99.90;;;;;;4900816;29;20460;-73
2023/10/26 11:17:23;;;;;;;0.60;0.10;;;13.50;99.90;;;;;;4899482;29;20510;-73
2023/10/26 11:19:53;;;;;;;0.60;0.10;;;13.60;99.90;;;;;;4902236;29;20447;-72
2023/10/26 11:22:23;;;;;;;0.60;0.10;;;;;;;;;;4894535;29;20477;-73
2023/10/26 11:24:51;;;;;;;0.60;0.10;;;13.60;99.90;;;;;;4895656;29;20459;-73
2023/10/26 11:27:20;;;;;;;0.60;0.10;;;13.60;99.90;;;;;;4901419;29;20554;-72
2023/10/26 11:30:03;;;;;;;0.60;0.10;;;13.60;99.90;;;;;;4898682;29;20454;-72
2023/10/26 11:32:30;;;;;;;0.60;0.10;;;13.60;99.90;;;;;;4891446;29;20564;-72
2023/10/26 11:35:06;;;;;;;0.60;0.10;;;13.60;99.90;;;;;;4894548;29;20444;-72
2023/10/26 11:37:37;;;;;;;0.60;0.10;;;13.60;99.90;;;;;;4893880;29;20446;-72
2023/10/26 11:40:06;;;;;;;0.60;0.10;;;13.50;99.90;;;;;;4895139;29;20452;-72
2023/10/26 11:42:47;;;;;;;0.60;0.10;;;13.40;99.90;;;;;;4895119;29;20487;-72
2023/10/26 11:45:17;;;;;;;0.60;0.10;;;13.40;99.90;;;;;;4897984;29;20446;-72
2023/10/26 11:47:50;;;;;;;0.70;0.40;;;13.20;99.90;;;;;;4904852;29;20517;-72
2023/10/26 11:50:19;;;;;;;0.60;0.20;;;;;;;;;;4906733;29;20454;-72
2023/10/26 11:52:49;;;;;;;0.60;0.20;;;13.20;99.90;;;;;;4904577;29;20455;-72
2023/10/26 11:55:18;;;;;;;0.60;0.20;;;13.30;99.90;;;;;;4905418;29;20487;-72
2023/10/26 11:57:46;;;;;;;0.70;0.40;;;13.30;99.90;;;;;;4905769;29;20438;-72
2023/10/26 12:00:17;;;;;;;0.60;0.30;;;13.20;99.90;;;;;;4903561;29;20515;-73
2023/10/26 12:02:45;;;;;;;0.50;0.10;;;13.10;99.90;;;;;;4895945;29;20471;-73
2023/10/26 12:05:15;;;;;;;0.60;0.40;;;13.20;99.90;;;;;;4896270;29;20525;-72
2023/10/26 12:07:43;;;;;;;0.60;0.10;;;13.30;99.90;;;;;;4902267;29;20515;-73
2023/10/26 12:10:14;;;;;;;0.60;0.10;;;;;;;;;;4895302;29;21005;-72
2023/10/26 12:12:44;;;;;;;0.60;0.10;;;;;;;;;;4901613;29;20534;-72
2023/10/26 12:15:12;;;;;;;0.60;0.20;;;13.50;99.90;;;;;;4896862;29;20540;-71
2023/10/26 12:17:40;;;;;;;0.60;0.10;;;13.50;99.90;;;;;;4891340;29;20834;-72
2023/10/26 12:20:09;;;;;;;0.60;0.10;;;13.60;99.90;;;;;;4893363;29;20448;-74
2023/10/26 12:22:39;;;;;;;0.53;0.10;;;13.40;99.90;;;;;;4898708;29;20543;-72
2023/10/26 12:25:08;;;;;;;0.60;0.10;;;13.50;99.90;;;;;;4898069;29;20467;-71
2023/10/26 12:27:37;;;;;;;0.60;0.20;;;13.30;99.90;;;;;;4898955;29;20487;-71
2023/10/26 12:30:25;;;;;;;0.80;0.20;;;13.40;99.90;;;;;;4896508;29;20477;-72
2023/10/26 12:32:53;;;;;;;0.60;0.10;;;13.50;99.90;;;;;;4904745;29;20540;-71
2023/10/26 12:35:23;;;;;;;0.57;0.10;;;13.50;99.90;;;;;;4906406;29;20447;-71
2023/10/26 12:37:51;;;;;;;0.57;0.10;;;13.50;99.90;;;;;;4899515;29;20473;-73
2023/10/26 12:40:20;;;;;;;0.50;0.10;;;13.60;99.90;;;;;;4902051;29;20459;-72
2023/10/26 12:42:49;;;;;;;0.60;0.10;;;13.60;99.90;;;;;;4895578;29;20498;-74
2023/10/26 12:45:18;;;;;;;0.60;0.10;;;13.70;99.90;;;;;;4893140;29;21009;-72
2023/10/26 12:47:46;;;;;;;0.60;0.10;;;13.80;99.90;;;;;;4890067;29;20490;-73
2023/10/26 12:50:14;;;;;;;0.60;0.10;;;;;;;;;;4884967;29;20551;-72
2023/10/26 12:52:42;;;;;;;0.60;0.10;;;14.00;99.90;;;;;;4896677;29;20939;-71
2023/10/26 12:55:09;;;;;;;0.60;0.10;;;14.00;99.90;;;;;;4900108;29;20520;-72
2023/10/26 12:57:37;;;;;;;0.60;0.10;;;14.10;99.90;;;;;;4901804;29;20463;-72
2023/10/26 13:00:09;;;;;;;0.60;0.10;;;14.20;99.90;;;;;;4901654;29;20498;-72
2023/10/26 13:02:37;;;;;;;0.60;0.20;;;14.30;99.90;;;;;;4900688;29;20475;-72
2023/10/26 13:05:05;;;;;;;0.60;0.10;;;14.30;99.90;;;;;;4891987;29;20473;-71
2023/10/26 13:07:34;;;;;;;0.60;0.10;;;14.30;99.90;;;;;;4889659;29;20489;-71
2023/10/26 13:10:02;;;;;;;0.60;0.10;;;14.20;99.90;;;;;;4886630;29;20482;-72
2023/10/26 13:12:30;;;;;;;0.60;0.10;;;14.30;99.90;;;;;;4894010;29;21015;-72
2023/10/26 13:14:58;;;;;;;1.77;1.67;;;14.30;99.90;;;;;;4898276;29;20457;-72
2023/10/26 13:17:33;;;;;;;1.27;1.17;;;14.20;99.90;;;;;;4898175;29;20463;-73
2023/10/26 13:20:03;;;;;;;0.70;0.30;;;14.30;99.90;;;;;;4893984;29;20453;-73
2023/10/26 13:22:32;;;;;;;0.60;0.47;;;14.30;99.90;;;;;;4885464;29;20492;-72
2023/10/26 13:25:00;;;;;;;0.60;0.10;;;14.30;99.90;;;;;;4899321;29;20476;-73
2023/10/26 13:27:29;;;;;;;0.70;0.30;;;14.40;99.90;;;;;;4897504;29;20532;-72
2023/10/26 13:29:57;;;;;;;0.60;0.20;;;14.30;99.90;;;;;;4887307;29;20484;-73
2023/10/26 13:32:26;;;;;;;0.60;0.10;;;14.10;99.90;;;;;;4894286;29;20587;-72
2023/10/26 13:34:56;;;;;;;0.60;0.10;;;14.10;99.90;;;;;;4894001;29;20472;-72
2023/10/26 13:37:24;;;;;;;0.60;0.10;;;14.20;99.90;;;;;;4897472;29;20978;-73
2023/10/26 13:39:51;;;;;;;0.60;0.10;;;14.20;99.90;;;;;;4899777;29;20516;-74
2023/10/26 13:42:20;;;;;;;0.60;0.10;;;14.20;99.90;;;;;;4898732;29;20842;-73
2023/10/26 13:44:48;;;;;;;0.60;0.10;;;14.20;99.90;;;;;;4895958;29;20452;-73
2023/10/26 13:47:15;;;;;;;0.60;0.10;;;14.20;99.90;;;;;;4898044;29;20562;-72
2023/10/26 13:49:43;;;;;;;0.60;0.10;;;14.20;99.90;;;;;;4893876;29;20520;-72
2023/10/26 13:52:13;;;;;;;2.20;1.43;;;14.20;99.90;;;;;;4897351;29;20480;-73
2023/10/26 13:54:41;;;;;;;0.60;0.10;;;14.30;99.90;;;;;;4893277;29;20472;-74
2023/10/26 13:57:09;;;;;;;0.77;0.60;;;14.30;99.90;;;;;;4899091;29;20483;-73
2023/10/26 13:59:39;;;;;;;0.60;0.10;;;14.40;99.90;;;;;;4902759;29;20453;-73
2023/10/26 14:02:07;;;;;;;0.60;0.27;;;14.50;99.90;;;;;;4898385;29;20499;-72
2023/10/26 14:04:36;;;;;;;3.20;2.87;;;;;;;;;;4889310;29;20883;-73
2023/10/26 14:07:09;;;;;;;0.60;0.10;;;14.40;99.90;;;;;;4882718;29;20849;-72
2023/10/26 14:09:38;;;;;;;0.60;0.10;;;14.40;99.90;;;;;;4887837;29;20536;-73
2023/10/26 14:12:06;;;;;;;0.60;0.20;;;14.40;99.90;;;;;;4885810;29;20470;-73
2023/10/26 14:14:35;;;;;;;0.60;0.10;;;14.40;99.90;;;;;;4885930;29;20453;-72
2023/10/26 14:17:04;;;;;;;0.60;0.10;;;14.40;99.90;;;;;;4886911;29;20460;-73
2023/10/26 14:19:32;;;;;;;0.60;0.10;;;14.40;99.90;;;;;;4887946;29;20512;-72
2023/10/26 14:22:00;;;;;;;0.60;0.10;;;14.40;99.90;;;;;;4885894;29;20484;-73
2023/10/26 14:24:29;;;;;;;0.93;0.40;;;14.10;99.90;;;;;;4887327;29;20831;-72
2023/10/26 14:26:58;;;;;;;2.00;1.33;;;14.10;99.90;;;;;;4892055;29;20901;-71
2023/10/26 14:29:26;;;;;;;0.60;0.30;;;14.10;99.90;;;;;;4894719;29;20986;-73
2023/10/26 14:31:54;;;;;;;0.97;0.63;;;14.00;99.90;;;;;;4893868;29;20527;-71
2023/10/26 14:34:22;;;;;;;3.43;3.23;;;14.10;99.90;;;;;;4898233;29;20955;-73
2023/10/26 14:36:50;;;;;;;0.60;0.20;;;14.00;99.90;;;;;;4890755;29;20471;-72
2023/10/26 14:39:19;;;;;;;0.60;0.10;;;14.00;99.90;;;;;;4894508;29;20441;-74
2023/10/26 14:41:47;;;;;;;0.60;0.10;;;14.00;99.90;;;;;;4879034;29;20569;-74
2023/10/26 14:44:16;;;;;;;0.60;0.10;;;14.00;99.90;;;;;;4888891;29;20455;-74
2023/10/26 14:46:44;;;;;;;0.60;0.10;;;14.00;99.90;;;;;;4887220;29;20554;-74
2023/10/26 14:49:12;;;;;;;0.60;0.10;;;13.90;99.90;;;;;;4895651;29;20490;-74
2023/10/26 14:51:42;;;;;;;0.60;0.10;;;13.90;99.90;;;;;;4887688;29;20485;-73
2023/10/26 14:54:10;;;;;;;0.73;0.57;;;13.80;99.90;;;;;;4879148;29;20830;-74
2023/10/26 14:56:38;;;;;;;0.50;0.20;;;13.70;99.90;;;;;;4878820;29;20823;-73
2023/10/26 14:59:06;;;;;;;0.60;0.10;;;13.80;99.90;;;;;;4878759;29;20449;-72
2023/10/26 15:01:35;;;;;;;0.60;0.10;;;13.50;99.90;;;;;;4884637;29;20497;-73
2023/10/26 15:04:05;;;;;;;0.60;0.10;;;13.50;99.90;;;;;;4890582;29;20568;-74
2023/10/26 15:06:33;;;;;;;0.60;0.10;;;13.50;99.90;;;;;;4887264;29;20464;-74
2023/10/26 15:09:00;;;;;;;0.70;0.33;;;13.40;99.90;;;;;;4879022;29;20464;-73
2023/10/26 15:11:28;;;;;;;0.60;0.10;;;13.50;99.90;;;;;;4879742;29;20470;-75
2023/10/26 15:14:18;;;;;;;0.60;0.10;;;13.50;99.90;;;;;;4879949;29;20442;-74
2023/10/26 15:16:47;;;;;;;0.60;0.10;;;13.50;99.90;;;;;;4879126;29;20452;-72
2023/10/26 15:19:15;;;;;;;0.60;0.10;;;13.50;99.90;;;;;;4879748;29;20452;-73
2023/10/26 15:21:43;;;;;;;1.97;1.87;;;13.60;99.90;;;;;;4886896;29;20472;-72
2023/10/26 15:24:11;;;;;;;0.80;0.67;;;13.50;99.90;;;;;;4880924;29;20465;-72
2023/10/26 15:26:40;;;;;;;0.60;0.20;;;;;;;;;;4891034;29;20466;-73
2023/10/26 15:29:08;;;;;;;0.60;0.10;;;13.50;99.90;;;;;;4878213;29;20471;-73
2023/10/26 15:31:37;;;;;;;0.50;0.10;;;;;;;;;;4886702;29;20481;-73
2023/10/26 15:34:07;;;;;;;0.60;0.10;;;13.50;99.90;;;;;;4887019;29;21128;-73
2023/10/26 15:36:35;;;;;;;0.50;0.10;;;13.50;99.90;;;;;;4886713;29;20475;-73
2023/10/26 15:39:04;;;;;;;0.60;0.10;;;13.50;99.90;;;;;;4890227;29;20467;-74
2023/10/26 15:41:34;;;;;;;0.50;0.10;;;13.60;99.90;;;;;;4894475;29;20242;-75
2023/10/26 15:44:02;;;;;;;0.50;0.10;;;13.60;99.90;;;;;;4894077;29;21224;-74
2023/10/26 15:46:29;;;;;;;0.53;0.10;;;13.70;99.90;;;;;;4889471;29;20486;-73
2023/10/26 15:49:00;;;;;;;0.60;0.10;;;13.60;99.90;;;;;;4880944;29;20965;-73
2023/10/26 15:51:49;;;;;;;0.60;0.10;;;13.60;99.90;;;;;;4894692;29;20471;-73
2023/10/26 15:54:17;;;;;;;0.50;0.10;;;13.50;99.90;;;;;;4895810;29;20483;-73
2023/10/26 15:56:45;;;;;;;0.60;0.10;;;13.50;99.90;;;;;;4894993;29;20448;-73
2023/10/26 15:59:15;;;;;;;0.50;0.10;;;13.50;99.90;;;;;;4889762;29;20538;-74
2023/10/26 16:01:43;;;;;;;0.50;0.10;;;13.40;99.90;;;;;;4883595;29;20495;-72
2023/10/26 16:04:11;;;;;;;0.50;0.10;;;13.40;99.90;;;;;;4897652;29;20834;-73
2023/10/26 16:06:39;;;;;;;0.60;0.10;;;13.40;99.90;;;;;;4896788;29;20558;-72
2023/10/26 16:09:08;;;;;;;0.50;0.10;;;13.40;99.90;;;;;;4896168;29;20458;-73
2023/10/26 16:11:36;;;;;;;0.50;0.10;;;13.30;99.90;;;;;;4896620;29;21062;-72
2023/10/26 16:14:05;;;;;;;0.50;0.10;;;;;;;;;;4896337;29;20483;-75
2023/10/26 16:16:32;;;;;;;0.93;0.93;;;13.40;99.90;;;;;;4882409;29;20481;-74
2023/10/26 16:19:01;;;;;;;0.50;0.10;;;13.40;99.90;;;;;;4884457;29;20475;-73
2023/10/26 16:21:29;;;;;;;0.60;0.10;;;13.50;99.90;;;;;;4900581;29;20479;-72
2023/10/26 16:23:57;;;;;;;0.50;0.10;;;13.40;99.90;;;;;;4903982;29;20459;-73
2023/10/26 16:26:26;;;;;;;0.50;0.10;;;13.40;99.90;;;;;;4896074;29;20455;-75
2023/10/26 16:28:54;;;;;;;0.50;0.13;;;13.30;99.90;;;;;;4893698;29;20452;-74
2023/10/26 16:31:22;;;;;;;0.60;0.10;;;13.30;99.90;;;;;;4891871;29;20575;-74
2023/10/26 16:33:49;;;;;;;0.53;0.10;;;13.30;99.90;;;;;;4886959;29;20537;-72
2023/10/26 16:36:17;;;;;;;0.53;0.10;;;13.20;99.90;;;;;;4896435;29;20539;-72
2023/10/26 16:38:45;;;;;;;0.50;0.10;;;13.20;99.90;;;;;;4896204;29;20488;-74
2023/10/26 16:41:13;;;;;;;0.50;0.10;;;13.20;99.90;;;;;;4895724;29;20898;-75
2023/10/26 16:43:43;;;;;;;0.50;0.10;;;;;;;;;;4895635;29;20545;-72
2023/10/26 16:46:12;;;;;;;0.50;0.10;;;13.20;99.90;;;;;;4889379;29;20460;-74
2023/10/26 16:48:42;;;;;;;0.50;0.10;;;13.20;99.90;;;;;;4891023;29;20554;-73
2023/10/26 16:51:10;;;;;;;0.50;0.10;;;13.20;99.90;;;;;;4889604;29;20488;-74
2023/10/26 16:53:40;;;;;;;0.50;0.10;;;13.20;99.90;;;;;;4896267;29;20489;-74
2023/10/26 16:56:08;;;;;;;2.40;2.10;;;;;;;;;;4889104;29;20453;-75
2023/10/26 16:58:36;;;;;;;0.50;0.10;;;13.20;99.90;;;;;;4886952;29;21069;-74
2023/10/26 17:01:10;;;;;;;0.50;0.20;;;13.20;99.90;;;;;;4892453;29;20477;-73
2023/10/26 17:03:39;;;;;;;0.50;0.10;;;13.20;99.90;;;;;;4890173;29;20455;-74
2023/10/26 17:06:08;;;;;;;0.57;0.10;;;13.20;99.90;;;;;;4891384;29;20463;-74
2023/10/26 17:08:36;;;;;;;0.50;0.10;;;13.20;99.90;;;;;;4897194;29;20459;-75